createdAt,value
2023-12-15T00:00:27.173Z,95364.00
2023-12-15T00:01:27.205Z,95363.00
2023-12-15T00:02:27.337Z,95364.00
2023-12-15T00:03:27.351Z,95364.00
2023-12-15T00:04:27.391Z,95365.00
2023-12-15T00:05:27.531Z,95367.00
2023-12-15T00:06:27.590Z,95371.00
2023-12-15T00:07:27.631Z,95373.00
2023-12-15T00:08:27.706Z,95374.00
2023-12-15T00:09:27.716Z,95375.00
2023-12-15T00:10:27.774Z,95377.00
2023-12-15T00:11:27.921Z,95382.00
2023-12-15T00:12:27.894Z,95383.00
2023-12-15T00:13:27.964Z,95387.00
2023-12-15T00:14:28.039Z,95387.00
2023-12-15T00:15:28.092Z,95388.00
2023-12-15T00:16:28.170Z,95389.00
2023-12-15T00:17:28.233Z,95390.00
2023-12-15T00:18:28.329Z,95390.00
2023-12-15T00:19:28.310Z,95389.00
2023-12-15T00:20:28.398Z,95389.00
2023-12-15T00:21:28.441Z,95392.00
2023-12-15T00:22:28.530Z,95392.00
2023-12-15T00:23:28.587Z,95396.00
2023-12-15T00:24:28.627Z,95399.00
2023-12-15T00:25:28.694Z,95399.00
2023-12-15T00:26:28.817Z,95398.00
2023-12-15T00:27:28.820Z,95399.00
2023-12-15T00:28:28.868Z,95399.00
2023-12-15T00:29:28.963Z,95398.00
2023-12-15T00:30:29.003Z,95400.00
2023-12-15T00:31:29.036Z,95398.00
2023-12-15T00:32:29.197Z,95399.00
2023-12-15T00:33:29.246Z,95400.00
2023-12-15T00:34:29.227Z,95399.00
2023-12-15T00:35:29.340Z,95399.00
2023-12-15T00:36:29.346Z,95398.00
2023-12-15T00:37:29.400Z,95398.00
2023-12-15T00:38:29.457Z,95401.00
2023-12-15T00:39:29.509Z,95400.00
2023-12-15T00:40:29.582Z,95400.00
2023-12-15T00:41:29.687Z,95399.00
2023-12-15T00:42:29.673Z,95401.00
2023-12-15T00:43:29.761Z,95405.00
2023-12-15T00:44:29.905Z,95407.00
2023-12-15T00:45:29.884Z,95407.00
2023-12-15T00:46:29.938Z,95404.00
2023-12-15T00:47:30.106Z,95408.00
2023-12-15T00:48:30.177Z,95409.00
2023-12-15T00:49:30.223Z,95410.00
2023-12-15T00:50:30.359Z,95410.00
2023-12-15T00:51:30.222Z,95409.00
2023-12-15T00:52:30.293Z,95412.00
2023-12-15T00:53:30.367Z,95411.00
2023-12-15T00:54:30.408Z,95412.00
2023-12-15T00:55:30.461Z,95414.00
2023-12-15T00:56:30.631Z,95412.00
2023-12-15T00:57:30.585Z,95413.00
2023-12-15T00:58:30.627Z,95415.00
2023-12-15T00:59:30.721Z,95415.00
2023-12-15T01:00:30.776Z,95416.00
2023-12-15T01:01:30.816Z,95418.00
2023-12-15T01:02:30.913Z,95422.00
2023-12-15T01:03:30.973Z,95422.00
2023-12-15T01:04:31.027Z,95422.00
2023-12-15T01:05:31.122Z,95425.00
2023-12-15T01:06:31.139Z,95427.00
2023-12-15T01:07:31.185Z,95430.00
2023-12-15T01:08:31.317Z,95431.00
2023-12-15T01:09:31.288Z,95434.00
2023-12-15T01:10:31.371Z,95433.00
2023-12-15T01:11:31.454Z,95436.00
2023-12-15T01:12:31.482Z,95440.00
2023-12-15T01:13:31.533Z,95442.00
2023-12-15T01:14:31.623Z,95444.00
2023-12-15T01:15:31.643Z,95448.00
2023-12-15T01:16:31.689Z,95448.00
2023-12-15T01:17:31.833Z,95448.00
2023-12-15T01:18:31.871Z,95449.00
2023-12-15T01:19:31.878Z,95452.00
2023-12-15T01:20:31.925Z,95453.00
2023-12-15T01:21:31.970Z,95457.00
2023-12-15T01:22:32.014Z,95460.00
2023-12-15T01:23:32.189Z,95459.00
2023-12-15T01:24:32.140Z,95460.00
2023-12-15T01:25:32.213Z,95460.00
2023-12-15T01:26:32.291Z,95460.00
2023-12-15T01:27:32.315Z,95459.00
2023-12-15T01:28:32.363Z,95462.00
2023-12-15T01:29:32.476Z,95465.00
2023-12-15T01:30:32.500Z,95464.00
2023-12-15T01:31:32.531Z,95464.00
2023-12-15T01:32:32.730Z,95467.00
2023-12-15T01:33:32.630Z,95464.00
2023-12-15T01:34:32.681Z,95466.00
2023-12-15T01:35:32.826Z,95470.00
2023-12-15T01:36:32.814Z,95472.00
2023-12-15T01:37:32.852Z,95474.00
2023-12-15T01:38:32.923Z,95476.00
2023-12-15T01:39:32.967Z,95475.00
2023-12-15T01:40:33.023Z,95475.00
2023-12-15T01:41:33.178Z,95473.00
2023-12-15T01:42:33.126Z,95475.00
2023-12-15T01:43:33.196Z,95473.00
2023-12-15T01:44:33.316Z,95475.00
2023-12-15T01:45:33.306Z,95472.00
2023-12-15T01:46:33.364Z,95473.00
2023-12-15T01:47:33.548Z,95472.00
2023-12-15T01:48:33.549Z,95473.00
2023-12-15T01:49:33.573Z,95473.00
2023-12-15T01:50:33.664Z,95469.00
2023-12-15T01:51:33.663Z,95473.00
2023-12-15T01:52:33.727Z,95475.00
2023-12-15T01:53:33.796Z,95477.00
2023-12-15T01:54:33.821Z,95478.00
2023-12-15T01:55:33.870Z,95481.00
2023-12-15T01:56:33.952Z,95483.00
2023-12-15T01:57:34.323Z,95484.00
2023-12-15T01:58:34.059Z,95485.00
2023-12-15T01:59:34.124Z,95486.00
2023-12-15T02:00:34.222Z,95484.00
2023-12-15T02:01:34.265Z,95486.00
2023-12-15T02:02:34.308Z,95487.00
2023-12-15T02:03:34.465Z,95490.00
2023-12-15T02:04:34.398Z,95491.00
2023-12-15T02:05:34.506Z,95493.00
2023-12-15T02:06:34.488Z,95496.00
2023-12-15T02:07:34.889Z,95496.00
2023-12-15T02:08:34.630Z,95497.00
2023-12-15T02:09:34.643Z,95498.00
2023-12-15T02:10:34.690Z,95499.00
2023-12-15T02:11:57.770Z,95502.00
2023-12-15T02:12:34.990Z,95502.00
2023-12-15T02:13:35.504Z,95504.00
2023-12-15T02:14:34.780Z,95505.00
2023-12-15T02:15:34.957Z,95504.00
2023-12-15T02:16:34.747Z,95505.00
2023-12-15T02:17:35.269Z,95507.00
2023-12-15T02:18:35.056Z,95509.00
2023-12-15T02:19:34.877Z,95512.00
2023-12-15T02:20:34.950Z,95511.00
2023-12-15T02:21:34.953Z,95509.00
2023-12-15T02:22:35.028Z,95513.00
2023-12-15T02:23:35.093Z,95513.00
2023-12-15T02:24:35.148Z,95514.00
2023-12-15T02:25:35.249Z,95513.00
2023-12-15T02:26:35.279Z,95513.00
2023-12-15T02:27:35.580Z,95516.00
2023-12-15T02:28:35.370Z,95517.00
2023-12-15T02:29:35.478Z,95518.00
2023-12-15T02:30:35.526Z,95519.00
2023-12-15T02:31:35.550Z,95517.00
2023-12-15T02:32:35.807Z,95518.00
2023-12-15T02:33:35.833Z,95520.00
2023-12-15T02:34:35.840Z,95518.00
2023-12-15T02:35:35.866Z,95517.00
2023-12-15T02:36:35.866Z,95517.00
2023-12-15T02:37:36.229Z,95516.00
2023-12-15T02:38:35.977Z,95518.00
2023-12-15T02:39:36.053Z,95520.00
2023-12-15T02:40:36.116Z,95522.00
2023-12-15T02:41:36.180Z,95520.00
2023-12-15T02:42:36.273Z,95524.00
2023-12-15T02:43:36.280Z,95523.00
2023-12-15T02:44:36.387Z,95522.00
2023-12-15T02:45:36.402Z,95524.00
2023-12-15T02:46:36.470Z,95525.00
2023-12-15T02:47:37.552Z,95526.00
2023-12-15T02:48:36.714Z,95528.00
2023-12-15T02:49:36.644Z,95534.00
2023-12-15T02:50:36.732Z,95534.00
2023-12-15T02:51:36.771Z,95534.00
2023-12-15T02:52:36.809Z,95535.00
2023-12-15T02:53:36.858Z,95534.00
2023-12-15T02:54:36.920Z,95536.00
2023-12-15T02:55:36.973Z,95535.00
2023-12-15T02:56:37.018Z,95536.00
2023-12-15T02:57:37.310Z,95539.00
2023-12-15T02:58:37.214Z,95539.00
2023-12-15T02:59:37.240Z,95541.00
2023-12-15T03:00:37.303Z,95545.00
2023-12-15T03:01:37.342Z,95547.00
2023-12-15T03:02:37.403Z,95549.00
2023-12-15T03:03:37.484Z,95549.00
2023-12-15T03:04:37.490Z,95550.00
2023-12-15T03:05:37.646Z,95549.00
2023-12-15T03:06:37.626Z,95550.00
2023-12-15T03:07:37.879Z,95550.00
2023-12-15T03:08:37.710Z,95551.00
2023-12-15T03:09:37.755Z,95551.00
2023-12-15T03:10:37.801Z,95551.00
2023-12-15T03:11:37.861Z,95553.00
2023-12-15T03:12:37.935Z,95551.00
2023-12-15T03:13:38.002Z,95553.00
2023-12-15T03:14:38.025Z,95553.00
2023-12-15T03:15:38.082Z,95556.00
2023-12-15T03:16:38.141Z,95556.00
2023-12-15T03:17:38.603Z,95560.00
2023-12-15T03:18:38.256Z,95557.00
2023-12-15T03:19:38.326Z,95559.00
2023-12-15T03:20:38.391Z,95561.00
2023-12-15T03:21:38.451Z,95562.00
2023-12-15T03:22:38.486Z,95565.00
2023-12-15T03:23:38.569Z,95567.00
2023-12-15T03:24:38.618Z,95566.00
2023-12-15T03:25:38.688Z,95566.00
2023-12-15T03:26:38.773Z,95567.00
2023-12-15T03:27:38.990Z,95567.00
2023-12-15T03:28:38.858Z,95570.00
2023-12-15T03:29:38.930Z,95570.00
2023-12-15T03:30:38.965Z,95572.00
2023-12-15T03:31:39.015Z,95574.00
2023-12-15T03:32:39.124Z,95572.00
2023-12-15T03:33:39.189Z,95571.00
2023-12-15T03:34:39.164Z,95572.00
2023-12-15T03:35:39.205Z,95571.00
2023-12-15T03:36:39.272Z,95571.00
2023-12-15T03:37:39.501Z,95571.00
2023-12-15T03:38:39.382Z,95572.00
2023-12-15T03:39:39.419Z,95574.00
2023-12-15T03:40:39.489Z,95577.00
2023-12-15T03:41:39.521Z,95578.00
2023-12-15T03:42:39.578Z,95581.00
2023-12-15T03:43:39.653Z,95583.00
2023-12-15T03:44:39.687Z,95588.00
2023-12-15T03:45:39.734Z,95588.00
2023-12-15T03:46:39.796Z,95588.00
2023-12-15T03:47:40.360Z,95588.00
2023-12-15T03:48:39.988Z,95589.00
2023-12-15T03:49:39.965Z,95591.00
2023-12-15T03:50:40.036Z,95592.00
2023-12-15T03:51:40.074Z,95597.00
2023-12-15T03:52:40.168Z,95599.00
2023-12-15T03:53:40.333Z,95599.00
2023-12-15T03:54:40.267Z,95603.00
2023-12-15T03:55:40.331Z,95605.00
2023-12-15T03:56:40.390Z,95607.00
2023-12-15T03:57:40.434Z,95609.00
2023-12-15T03:58:40.494Z,95608.00
2023-12-15T03:59:40.615Z,95609.00
2023-12-15T04:00:40.628Z,95611.00
2023-12-15T04:01:40.709Z,95613.00
2023-12-15T04:02:40.773Z,95614.00
2023-12-15T04:03:40.777Z,95616.00
2023-12-15T04:04:40.879Z,95617.00
2023-12-15T04:05:40.935Z,95618.00
2023-12-15T04:06:40.972Z,95618.00
2023-12-15T04:07:41.029Z,95621.00
2023-12-15T04:08:41.107Z,95620.00
2023-12-15T04:09:41.141Z,95620.00
2023-12-15T04:10:41.201Z,95623.00
2023-12-15T04:11:41.246Z,95623.00
2023-12-15T04:12:41.321Z,95623.00
2023-12-15T04:13:41.363Z,95624.00
2023-12-15T04:14:41.497Z,95623.00
2023-12-15T04:15:41.470Z,95627.00
2023-12-15T04:16:41.508Z,95628.00
2023-12-15T04:17:41.898Z,95631.00
2023-12-15T04:18:41.749Z,95631.00
2023-12-15T04:19:41.892Z,95630.00
2023-12-15T04:20:41.778Z,95633.00
2023-12-15T04:21:41.767Z,95634.00
2023-12-15T04:22:41.830Z,95638.00
2023-12-15T04:23:41.887Z,95638.00
2023-12-15T04:24:41.927Z,95640.00
2023-12-15T04:25:41.974Z,95641.00
2023-12-15T04:26:42.017Z,95641.00
2023-12-15T04:27:42.356Z,95643.00
2023-12-15T04:28:42.110Z,95642.00
2023-12-15T04:29:42.137Z,95645.00
2023-12-15T04:30:42.226Z,95645.00
2023-12-15T04:31:42.230Z,95647.00
2023-12-15T04:32:42.337Z,95648.00
2023-12-15T04:33:42.327Z,95650.00
2023-12-15T04:34:42.375Z,95652.00
2023-12-15T04:35:42.419Z,95652.00
2023-12-15T04:36:42.461Z,95654.00
2023-12-15T04:37:50.114Z,95654.00
2023-12-15T04:38:50.115Z,95656.00
2023-12-15T04:39:50.136Z,95657.00
2023-12-15T04:40:50.101Z,95660.00
2023-12-15T04:41:50.126Z,95662.00
2023-12-15T04:42:50.117Z,95662.00
2023-12-15T04:43:50.104Z,95665.00
2023-12-15T04:44:50.126Z,95666.00
2023-12-15T04:45:50.146Z,95669.00
2023-12-15T04:46:50.113Z,95673.00
2023-12-15T04:47:50.158Z,95674.00
2023-12-15T04:48:50.214Z,95675.00
2023-12-15T04:49:50.134Z,95677.00
2023-12-15T04:50:50.131Z,95679.00
2023-12-15T04:51:50.144Z,95683.00
2023-12-15T04:52:50.165Z,95684.00
2023-12-15T04:53:50.163Z,95685.00
2023-12-15T04:54:50.149Z,95686.00
2023-12-15T04:55:50.133Z,95686.00
2023-12-15T04:56:50.143Z,95689.00
2023-12-15T04:57:50.345Z,95686.00
2023-12-15T04:58:50.132Z,95689.00
2023-12-15T04:59:50.148Z,95690.00
2023-12-15T05:00:50.206Z,95693.00
2023-12-15T05:01:50.156Z,95696.00
2023-12-15T05:02:50.139Z,95697.00
2023-12-15T05:03:50.184Z,95696.00
2023-12-15T05:04:50.169Z,95696.00
2023-12-15T05:05:50.264Z,95698.00
2023-12-15T05:06:50.164Z,95699.00
2023-12-15T05:07:50.151Z,95701.00
2023-12-15T05:08:50.169Z,95702.00
2023-12-15T05:09:50.213Z,95700.00
2023-12-15T05:10:51.596Z,95701.00
2023-12-15T05:11:50.171Z,95701.00
2023-12-15T05:12:50.169Z,95707.00
2023-12-15T05:13:50.197Z,95710.00
2023-12-15T05:14:50.167Z,95711.00
2023-12-15T05:15:50.181Z,95710.00
2023-12-15T05:16:50.193Z,95714.00
2023-12-15T05:17:50.433Z,95715.00
2023-12-15T05:18:50.245Z,95716.00
2023-12-15T05:19:50.168Z,95715.00
2023-12-15T05:20:50.176Z,95715.00
2023-12-15T05:21:50.179Z,95715.00
2023-12-15T05:22:50.185Z,95718.00
2023-12-15T05:23:50.185Z,95719.00
2023-12-15T05:24:50.176Z,95721.00
2023-12-15T05:25:50.174Z,95723.00
2023-12-15T05:26:50.188Z,95723.00
2023-12-15T05:27:50.254Z,95725.00
2023-12-15T05:28:50.284Z,95731.00
2023-12-15T05:29:50.386Z,95728.00
2023-12-15T05:30:50.356Z,95731.00
2023-12-15T05:31:50.387Z,95730.00
2023-12-15T05:32:50.517Z,95734.00
2023-12-15T05:33:50.466Z,95731.00
2023-12-15T05:34:50.453Z,95731.00
2023-12-15T05:35:50.465Z,95733.00
2023-12-15T05:36:50.509Z,95733.00
2023-12-15T05:37:50.544Z,95735.00
2023-12-15T05:38:50.565Z,95735.00
2023-12-15T05:39:50.595Z,95736.00
2023-12-15T05:40:50.622Z,95740.00
2023-12-15T05:41:51.372Z,95740.00
2023-12-15T05:42:50.708Z,95746.00
2023-12-15T05:43:50.747Z,95747.00
2023-12-15T05:44:50.829Z,95748.00
2023-12-15T05:45:50.904Z,95750.00
2023-12-15T05:46:50.859Z,95753.00
2023-12-15T05:47:50.999Z,95755.00
2023-12-15T05:48:51.049Z,95756.00
2023-12-15T05:49:51.047Z,95756.00
2023-12-15T05:50:50.995Z,95758.00
2023-12-15T05:51:51.011Z,95757.00
2023-12-15T05:52:51.047Z,95761.00
2023-12-15T05:53:57.494Z,95761.00
2023-12-15T05:54:52.077Z,95760.00
2023-12-15T05:55:51.085Z,95762.00
2023-12-15T05:56:51.093Z,95763.00
2023-12-15T05:57:51.102Z,95764.00
2023-12-15T05:58:51.097Z,95767.00
2023-12-15T05:59:51.073Z,95768.00
2023-12-15T06:00:51.098Z,95767.00
2023-12-15T06:01:51.084Z,95770.00
2023-12-15T06:02:51.107Z,95773.00
2023-12-15T06:03:51.096Z,95774.00
2023-12-15T06:04:51.092Z,95779.00
2023-12-15T06:05:51.137Z,95781.00
2023-12-15T06:06:51.094Z,95782.00
2023-12-15T06:07:51.078Z,95781.00
2023-12-15T06:08:51.085Z,95782.00
2023-12-15T06:09:51.079Z,95785.00
2023-12-15T06:10:51.127Z,95787.00
2023-12-15T06:11:51.147Z,95789.00
2023-12-15T06:12:51.157Z,95790.00
2023-12-15T06:13:51.211Z,95795.00
2023-12-15T06:14:51.240Z,95795.00
2023-12-15T06:15:51.312Z,95800.00
2023-12-15T06:16:51.894Z,95801.00
2023-12-15T06:17:51.431Z,95804.00
2023-12-15T06:18:51.452Z,95805.00
2023-12-15T06:19:51.437Z,95807.00
2023-12-15T06:20:51.495Z,95806.00
2023-12-15T06:21:51.503Z,95809.00
2023-12-15T06:22:53.916Z,95813.00
2023-12-15T06:23:51.547Z,95812.00
2023-12-15T06:24:51.585Z,95815.00
2023-12-15T06:25:51.534Z,95817.00
2023-12-15T06:26:51.541Z,95819.00
2023-12-15T06:27:51.540Z,95817.00
2023-12-15T06:28:51.617Z,95828.00
2023-12-15T06:29:51.557Z,95822.00
2023-12-15T06:30:51.628Z,95824.00
2023-12-15T06:31:51.544Z,95824.00
2023-12-15T06:32:51.625Z,95824.00
2023-12-15T06:33:51.604Z,95829.00
2023-12-15T06:34:51.634Z,95829.00
2023-12-15T06:35:51.589Z,95834.00
2023-12-15T06:36:51.576Z,95836.00
2023-12-15T06:37:51.565Z,95841.00
2023-12-15T06:38:51.568Z,95847.00
2023-12-15T06:39:51.636Z,95849.00
2023-12-15T06:40:51.559Z,95852.00
2023-12-15T06:41:51.908Z,95857.00
2023-12-15T06:42:51.565Z,95858.00
2023-12-15T06:43:51.582Z,95860.00
2023-12-15T06:44:51.599Z,95864.00
2023-12-15T06:45:51.577Z,95867.00
2023-12-15T06:46:51.649Z,95872.00
2023-12-15T06:47:51.776Z,95871.00
2023-12-15T06:48:51.656Z,95873.00
2023-12-15T06:49:51.591Z,95874.00
2023-12-15T06:50:51.604Z,95877.00
2023-12-15T06:51:51.622Z,95877.00
2023-12-15T06:52:51.612Z,95875.00
2023-12-15T06:53:51.702Z,95877.00
2023-12-15T06:54:51.595Z,95879.00
2023-12-15T06:55:51.596Z,95881.00
2023-12-15T06:56:51.658Z,95884.00
2023-12-15T06:57:54.737Z,95887.00
2023-12-15T06:58:51.653Z,95889.00
2023-12-15T06:59:51.662Z,95891.00
2023-12-15T07:00:51.804Z,95893.00
2023-12-15T07:01:51.661Z,95898.00
2023-12-15T07:02:51.683Z,95900.00
2023-12-15T07:03:51.873Z,95900.00
2023-12-15T07:04:51.669Z,95901.00
2023-12-15T07:05:51.781Z,95902.00
2023-12-15T07:06:51.649Z,95904.00
2023-12-15T07:07:51.673Z,95903.00
2023-12-15T07:08:51.753Z,95906.00
2023-12-15T07:09:51.691Z,95908.00
2023-12-15T07:10:51.648Z,95910.00
2023-12-15T07:11:51.700Z,95911.00
2023-12-15T07:12:51.643Z,95913.00
2023-12-15T07:13:51.624Z,95918.00
2023-12-15T07:14:51.659Z,95918.00
2023-12-15T07:15:51.657Z,95921.00
2023-12-15T07:16:51.626Z,95925.00
2023-12-15T07:17:51.788Z,95928.00
2023-12-15T07:18:51.730Z,95931.00
2023-12-15T07:19:51.633Z,95929.00
2023-12-15T07:20:51.648Z,95931.00
2023-12-15T07:21:51.675Z,95936.00
2023-12-15T07:22:51.637Z,95939.00
2023-12-15T07:23:51.997Z,95940.00
2023-12-15T07:24:51.639Z,95944.00
2023-12-15T07:25:51.643Z,95947.00
2023-12-15T07:26:51.704Z,95953.00
2023-12-15T07:27:51.647Z,95954.00
2023-12-15T07:28:51.659Z,95958.00
2023-12-15T07:29:51.640Z,95961.00
2023-12-15T07:30:51.765Z,95964.00
2023-12-15T07:31:51.696Z,95965.00
2023-12-15T07:32:51.786Z,95966.00
2023-12-15T07:33:51.743Z,95972.00
2023-12-15T07:34:51.652Z,95974.00
2023-12-15T07:35:51.835Z,95979.00
2023-12-15T07:36:51.657Z,95984.00
2023-12-15T07:37:51.652Z,95987.00
2023-12-15T07:38:51.670Z,95987.00
2023-12-15T07:39:51.664Z,95988.00
2023-12-15T07:40:51.668Z,95992.00
2023-12-15T07:41:51.708Z,95989.00
2023-12-15T07:42:51.668Z,95993.00
2023-12-15T07:43:51.675Z,95996.00
2023-12-15T07:44:51.661Z,95998.00
2023-12-15T07:45:51.712Z,96001.00
2023-12-15T07:46:51.678Z,96003.00
2023-12-15T07:47:51.823Z,96008.00
2023-12-15T07:48:51.795Z,96013.00
2023-12-15T07:49:51.681Z,96014.00
2023-12-15T07:50:51.753Z,96012.00
2023-12-15T07:51:51.712Z,96016.00
2023-12-15T07:52:51.684Z,96017.00
2023-12-15T07:53:52.019Z,96017.00
2023-12-15T07:54:51.698Z,96020.00
2023-12-15T07:55:51.677Z,96023.00
2023-12-15T07:56:51.724Z,96024.00
2023-12-15T07:57:51.685Z,96027.00
2023-12-15T07:58:51.941Z,96031.00
2023-12-15T07:59:52.319Z,96035.00
2023-12-15T08:00:51.731Z,96033.00
2023-12-15T08:01:51.690Z,96032.00
2023-12-15T08:02:51.734Z,96035.00
2023-12-15T08:03:51.966Z,96040.00
2023-12-15T08:04:54.462Z,96038.00
2023-12-15T08:05:51.854Z,96038.00
2023-12-15T08:06:51.816Z,96036.00
2023-12-15T08:07:51.786Z,96038.00
2023-12-15T08:08:51.807Z,96040.00
2023-12-15T08:09:51.824Z,96040.00
2023-12-15T08:10:51.795Z,96039.00
2023-12-15T08:11:51.840Z,96041.00
2023-12-15T08:12:51.825Z,96042.00
2023-12-15T08:13:51.840Z,96044.00
2023-12-15T08:14:51.818Z,96044.00
2023-12-15T08:15:51.854Z,96044.00
2023-12-15T08:16:51.822Z,96046.00
2023-12-15T08:17:52.072Z,96049.00
2023-12-15T08:18:52.013Z,96049.00
2023-12-15T08:19:51.829Z,96053.00
2023-12-15T08:20:51.837Z,96054.00
2023-12-15T08:21:51.807Z,96058.00
2023-12-15T08:22:51.834Z,96058.00
2023-12-15T08:23:51.840Z,96056.00
2023-12-15T08:24:51.814Z,96058.00
2023-12-15T08:25:51.889Z,96059.00
2023-12-15T08:26:51.814Z,96061.00
2023-12-15T08:27:51.856Z,96065.00
2023-12-15T08:28:51.828Z,96065.00
2023-12-15T08:29:51.819Z,96067.00
2023-12-15T08:30:51.899Z,96069.00
2023-12-15T08:31:51.856Z,96071.00
2023-12-15T08:32:51.937Z,96073.00
2023-12-15T08:33:52.112Z,96077.00
2023-12-15T08:34:51.823Z,96078.00
2023-12-15T08:35:51.868Z,96080.00
2023-12-15T08:36:51.881Z,96082.00
2023-12-15T08:37:51.888Z,96081.00
2023-12-15T08:38:51.970Z,96080.00
2023-12-15T08:39:51.838Z,96083.00
2023-12-15T08:40:51.864Z,96085.00
2023-12-15T08:41:51.842Z,96085.00
2023-12-15T08:42:52.474Z,96085.00
2023-12-15T08:43:51.972Z,96088.00
2023-12-15T08:44:51.875Z,96091.00
2023-12-15T08:45:51.942Z,96092.00
2023-12-15T08:46:51.910Z,96093.00
2023-12-15T08:47:51.947Z,96092.00
2023-12-15T08:48:52.124Z,96095.00
2023-12-15T08:49:51.859Z,96097.00
2023-12-15T08:50:51.892Z,96099.00
2023-12-15T08:51:51.858Z,96102.00
2023-12-15T08:52:51.900Z,96101.00
2023-12-15T08:53:52.057Z,96102.00
2023-12-15T08:54:51.896Z,96100.00
2023-12-15T08:55:51.897Z,96103.00
2023-12-15T08:56:52.037Z,96104.00
2023-12-15T08:57:51.922Z,96102.00
2023-12-15T08:58:51.914Z,96109.00
2023-12-15T08:59:51.861Z,96113.00
2023-12-15T09:00:51.864Z,96114.00
2023-12-15T09:01:51.937Z,96115.00
2023-12-15T09:02:52.014Z,96120.00
2023-12-15T09:03:52.057Z,96120.00
2023-12-15T09:04:59.630Z,96121.00
2023-12-15T09:06:16.292Z,96123.00
2023-12-15T09:06:53.422Z,96125.00
2023-12-15T09:07:52.089Z,96123.00
2023-12-15T09:08:52.082Z,96126.00
2023-12-15T09:09:51.996Z,96127.00
2023-12-15T09:10:52.071Z,96128.00
2023-12-15T09:11:52.038Z,96132.00
2023-12-15T09:12:51.993Z,96137.00
2023-12-15T09:13:52.031Z,96139.00
2023-12-15T09:14:52.005Z,96138.00
2023-12-15T09:15:52.107Z,96138.00
2023-12-15T09:16:51.998Z,96140.00
2023-12-15T09:17:52.521Z,96139.00
2023-12-15T09:18:52.096Z,96138.00
2023-12-15T09:19:52.024Z,96138.00
2023-12-15T09:20:52.032Z,96138.00
2023-12-15T09:21:52.058Z,96138.00
2023-12-15T09:22:52.029Z,96137.00
2023-12-15T09:23:52.023Z,96141.00
2023-12-15T09:24:52.021Z,96141.00
2023-12-15T09:25:52.026Z,96149.00
2023-12-15T09:26:52.089Z,96150.00
2023-12-15T09:27:52.159Z,96152.00
2023-12-15T09:28:52.540Z,96152.00
2023-12-15T09:29:52.207Z,96155.00
2023-12-15T09:30:52.271Z,96157.00
2023-12-15T09:31:52.243Z,96155.00
2023-12-15T09:32:55.189Z,96154.00
2023-12-15T09:33:52.582Z,96156.00
2023-12-15T09:34:52.311Z,96157.00
2023-12-15T09:35:52.316Z,96160.00
2023-12-15T09:36:52.316Z,96162.00
2023-12-15T09:37:52.925Z,96164.00
2023-12-15T09:38:52.308Z,96163.00
2023-12-15T09:39:52.316Z,96165.00
2023-12-15T09:40:52.324Z,96162.00
2023-12-15T09:41:52.309Z,96161.00
2023-12-15T09:42:52.377Z,96160.00
2023-12-15T09:43:52.492Z,96166.00
2023-12-15T09:45:00.998Z,96167.00
2023-12-15T09:45:53.330Z,96168.00
2023-12-15T09:46:52.460Z,96169.00
2023-12-15T09:47:52.496Z,96169.00
2023-12-15T09:48:52.625Z,96168.00
2023-12-15T09:49:52.337Z,96169.00
2023-12-15T09:50:52.457Z,96171.00
2023-12-15T09:51:52.382Z,96172.00
2023-12-15T09:52:52.342Z,96173.00
2023-12-15T09:53:52.496Z,96177.00
2023-12-15T09:54:52.368Z,96178.00
2023-12-15T09:55:52.513Z,96179.00
2023-12-15T09:56:52.509Z,96178.00
2023-12-15T09:57:52.539Z,96177.00
2023-12-15T09:58:52.619Z,96176.00
2023-12-15T09:59:52.666Z,96176.00
2023-12-15T10:00:52.732Z,96177.00
2023-12-15T10:01:52.744Z,96176.00
2023-12-15T10:02:52.857Z,96175.00
2023-12-15T10:03:52.865Z,96175.00
2023-12-15T10:04:52.910Z,96175.00
2023-12-15T10:05:52.979Z,96177.00
2023-12-15T10:06:53.019Z,96177.00
2023-12-15T10:07:53.089Z,96181.00
2023-12-15T10:09:01.305Z,96184.00
2023-12-15T10:09:54.544Z,96185.00
2023-12-15T10:10:53.311Z,96188.00
2023-12-15T10:11:53.117Z,96186.00
2023-12-15T10:12:53.108Z,96189.00
2023-12-15T10:13:53.126Z,96187.00
2023-12-15T10:14:53.160Z,96189.00
2023-12-15T10:15:53.142Z,96191.00
2023-12-15T10:16:53.120Z,96190.00
2023-12-15T10:17:53.199Z,96191.00
2023-12-15T10:18:53.202Z,96192.00
2023-12-15T10:19:53.156Z,96193.00
2023-12-15T10:20:53.574Z,96194.00
2023-12-15T10:21:53.195Z,96195.00
2023-12-15T10:22:53.298Z,96194.00
2023-12-15T10:23:53.314Z,96194.00
2023-12-15T10:24:53.403Z,96191.00
2023-12-15T10:25:53.370Z,96190.00
2023-12-15T10:26:53.411Z,96192.00
2023-12-15T10:27:53.470Z,96192.00
2023-12-15T10:28:53.556Z,96191.00
2023-12-15T10:29:54.090Z,96190.00
2023-12-15T10:30:53.701Z,96190.00
2023-12-15T10:31:53.654Z,96188.00
2023-12-15T10:32:53.772Z,96191.00
2023-12-15T10:33:54.101Z,96190.00
2023-12-15T10:34:53.721Z,96195.00
2023-12-15T10:35:53.764Z,96196.00
2023-12-15T10:36:53.861Z,96199.00
2023-12-15T10:37:53.812Z,96198.00
2023-12-15T10:38:53.947Z,96204.00
2023-12-15T10:39:53.874Z,96201.00
2023-12-15T10:40:53.915Z,96201.00
2023-12-15T10:41:53.945Z,96202.00
2023-12-15T10:42:53.960Z,96203.00
2023-12-15T10:43:53.990Z,96206.00
2023-12-15T10:44:54.013Z,96208.00
2023-12-15T10:45:54.021Z,96210.00
2023-12-15T10:46:54.046Z,96214.00
2023-12-15T10:47:54.354Z,96215.00
2023-12-15T10:48:54.169Z,96215.00
2023-12-15T10:49:54.164Z,96217.00
2023-12-15T10:50:54.159Z,96218.00
2023-12-15T10:51:54.205Z,96216.00
2023-12-15T10:52:54.227Z,96218.00
2023-12-15T10:53:54.267Z,96221.00
2023-12-15T10:54:54.337Z,96221.00
2023-12-15T10:55:54.412Z,96221.00
2023-12-15T10:56:54.373Z,96221.00
2023-12-15T10:57:54.441Z,96223.00
2023-12-15T10:58:54.476Z,96225.00
2023-12-15T10:59:54.544Z,96227.00
2023-12-15T11:00:54.728Z,96230.00
2023-12-15T11:01:54.747Z,96232.00
2023-12-15T11:02:54.969Z,96232.00
2023-12-15T11:03:54.766Z,96233.00
2023-12-15T11:04:54.846Z,96236.00
2023-12-15T11:05:55.014Z,96239.00
2023-12-15T11:06:54.994Z,96239.00
2023-12-15T11:07:55.069Z,96235.00
2023-12-15T11:08:55.103Z,96232.00
2023-12-15T11:09:55.149Z,96232.00
2023-12-15T11:10:55.260Z,96233.00
2023-12-15T11:11:55.306Z,96234.00
2023-12-15T11:12:55.326Z,96236.00
2023-12-15T11:13:55.393Z,96239.00
2023-12-15T11:14:55.426Z,96237.00
2023-12-15T11:15:55.451Z,96235.00
2023-12-15T11:16:55.535Z,96236.00
2023-12-15T11:17:55.809Z,96236.00
2023-12-15T11:18:55.817Z,96234.00
2023-12-15T11:19:55.653Z,96237.00
2023-12-15T11:20:55.705Z,96235.00
2023-12-15T11:21:55.776Z,96236.00
2023-12-15T11:22:55.814Z,96238.00
2023-12-15T11:23:56.121Z,96234.00
2023-12-15T11:24:55.882Z,96236.00
2023-12-15T11:25:55.925Z,96235.00
2023-12-15T11:26:55.937Z,96234.00
2023-12-15T11:27:55.942Z,96233.00
2023-12-15T11:28:56.069Z,96236.00
2023-12-15T11:29:55.979Z,96234.00
2023-12-15T11:30:56.505Z,96230.00
2023-12-15T11:31:56.077Z,96228.00
2023-12-15T11:32:56.811Z,96228.00
2023-12-15T11:33:56.224Z,96226.00
2023-12-15T11:34:56.221Z,96227.00
2023-12-15T11:35:56.298Z,96229.00
2023-12-15T11:36:56.367Z,96229.00
2023-12-15T11:37:56.557Z,96232.00
2023-12-15T11:38:56.474Z,96231.00
2023-12-15T11:39:56.555Z,96234.00
2023-12-15T11:40:56.571Z,96235.00
2023-12-15T11:41:56.639Z,96238.00
2023-12-15T11:42:57.067Z,96238.00
2023-12-15T11:43:56.726Z,96240.00
2023-12-15T11:44:56.795Z,96240.00